sensor_id;sensor_type;location;lat;lon;timestamp;temperature;humidity
9385;DHT22;4732;49.340;10.886;2023-02-28T04:03:58;-2.80;99.90
9385;DHT22;4732;49.340;10.886;2023-02-28T04:06:24;-2.90;99.90
9385;DHT22;4732;49.340;10.886;2023-02-28T04:08:50;-2.90;99.90
9385;DHT22;4732;49.340;10.886;2023-02-28T04:11:26;-2.90;99.90
9385;DHT22;4732;49.340;10.886;2023-02-28T04:13:54;-2.90;99.90
9385;DHT22;4732;49.340;10.886;2023-02-28T04:16:19;-2.80;99.90
9385;DHT22;4732;49.340;10.886;2023-02-28T04:18:46;-2.80;99.90
9385;DHT22;4732;49.340;10.886;2023-02-28T04:21:12;-2.80;99.90
9385;DHT22;4732;49.340;10.886;2023-02-28T04:23:38;-2.80;99.90
9385;DHT22;4732;49.340;10.886;2023-02-28T04:26:04;-2.90;99.90
9385;DHT22;4732;49.340;10.886;2023-02-28T04:28:30;-2.90;99.90
9385;DHT22;4732;49.340;10.886;2023-02-28T04:30:57;-2.90;99.90
9385;DHT22;4732;49.340;10.886;2023-02-28T04:33:23;-2.90;99.90
9385;DHT22;4732;49.340;10.886;2023-02-28T04:35:58;-2.80;99.90
9385;DHT22;4732;49.340;10.886;2023-02-28T04:38:25;-2.80;99.90
9385;DHT22;4732;49.340;10.886;2023-02-28T04:40:50;-2.80;99.90
9385;DHT22;4732;49.340;10.886;2023-02-28T04:43:16;-2.90;99.90
9385;DHT22;4732;49.340;10.886;2023-02-28T04:45:41;-3.00;99.90
9385;DHT22;4732;49.340;10.886;2023-02-28T04:48:07;-2.90;99.90
9385;DHT22;4732;49.340;10.886;2023-02-28T04:50:32;-2.90;99.90
9385;DHT22;4732;49.340;10.886;2023-02-28T04:52:58;-2.90;99.90
9385;DHT22;4732;49.340;10.886;2023-02-28T04:55:24;-2.90;99.90
9385;DHT22;4732;49.340;10.886;2023-02-28T04:57:49;-2.90;99.90
9385;DHT22;4732;49.340;10.886;2023-02-28T05:00:15;-3.00;99.90
9385;DHT22;4732;49.340;10.886;2023-02-28T05:02:42;-3.00;99.90
9385;DHT22;4732;49.340;10.886;2023-02-28T05:05:08;-3.00;99.90
9385;DHT22;4732;49.340;10.886;2023-02-28T05:07:33;-3.00;99.90
9385;DHT22;4732;49.340;10.886;2023-02-28T05:09:59;-3.00;99.90
9385;DHT22;4732;49.340;10.886;2023-02-28T05:12:25;-3.00;99.90
9385;DHT22;4732;49.340;10.886;2023-02-28T05:14:50;-3.00;99.90
9385;DHT22;4732;49.340;10.886;2023-02-28T05:17:16;-3.00;99.90
9385;DHT22;4732;49.340;10.886;2023-02-28T05:19:42;-3.00;99.90
9385;DHT22;4732;49.340;10.886;2023-02-28T05:22:14;-3.00;99.90
9385;DHT22;4732;49.340;10.886;2023-02-28T05:24:41;-3.00;99.90
9385;DHT22;4732;49.340;10.886;2023-02-28T05:27:08;-3.00;99.90
9385;DHT22;4732;49.340;10.886;2023-02-28T05:29:33;-3.00;99.90
9385;DHT22;4732;49.340;10.886;2023-02-28T05:31:59;-2.90;99.90
9385;DHT22;4732;49.340;10.886;2023-02-28T05:34:25;-2.90;99.90
9385;DHT22;4732;49.340;10.886;2023-02-28T05:36:50;-2.90;99.90
9385;DHT22;4732;49.340;10.886;2023-02-28T05:39:16;-2.90;99.90
9385;DHT22;4732;49.340;10.886;2023-02-28T05:41:42;-2.90;99.90
9385;DHT22;4732;49.340;10.886;2023-02-28T05:44:09;-2.90;99.90
9385;DHT22;4732;49.340;10.886;2023-02-28T05:46:34;-2.90;99.90
9385;DHT22;4732;49.340;10.886;2023-02-28T05:49:00;-2.80;99.90
9385;DHT22;4732;49.340;10.886;2023-02-28T05:51:26;-2.90;99.90
9385;DHT22;4732;49.340;10.886;2023-02-28T05:53:51;-2.90;99.90
9385;DHT22;4732;49.340;10.886;2023-02-28T05:56:17;-2.90;99.90
9385;DHT22;4732;49.340;10.886;2023-02-28T05:58:43;-2.90;99.90
9385;DHT22;4732;49.340;10.886;2023-02-28T06:01:36;-2.90;99.90
9385;DHT22;4732;49.340;10.886;2023-02-28T06:04:04;-2.90;99.90
9385;DHT22;4732;49.340;10.886;2023-02-28T06:06:30;-2.90;99.90
9385;DHT22;4732;49.340;10.886;2023-02-28T06:08:56;-2.90;99.90
9385;DHT22;4732;49.340;10.886;2023-02-28T06:11:22;-2.90;99.90
9385;DHT22;4732;49.340;10.886;2023-02-28T06:13:54;-2.90;99.90
9385;DHT22;4732;49.340;10.886;2023-02-28T06:16:20;-2.90;99.90
9385;DHT22;4732;49.340;10.886;2023-02-28T06:18:46;-2.80;99.90
9385;DHT22;4732;49.340;10.886;2023-02-28T06:21:12;-2.80;99.90
9385;DHT22;4732;49.340;10.886;2023-02-28T06:23:38;-2.80;99.90
9385;DHT22;4732;49.340;10.886;2023-02-28T06:26:04;-2.80;99.90
9385;DHT22;4732;49.340;10.886;2023-02-28T06:28:30;-2.80;99.90
9385;DHT22;4732;49.340;10.886;2023-02-28T06:30:55;-2.70;99.90
9385;DHT22;4732;49.340;10.886;2023-02-28T06:33:21;-2.70;99.90
9385;DHT22;4732;49.340;10.886;2023-02-28T06:35:50;-2.70;99.90
9385;DHT22;4732;49.340;10.886;2023-02-28T06:38:15;-2.60;99.90
9385;DHT22;4732;49.340;10.886;2023-02-28T06:40:41;-2.60;99.90
9385;DHT22;4732;49.340;10.886;2023-02-28T06:43:06;-2.60;99.90
9385;DHT22;4732;49.340;10.886;2023-02-28T06:45:32;-2.60;99.90
9385;DHT22;4732;49.340;10.886;2023-02-28T06:47:58;-2.60;99.90
9385;DHT22;4732;49.340;10.886;2023-02-28T06:50:25;-2.50;99.90
9385;DHT22;4732;49.340;10.886;2023-02-28T06:52:51;-2.50;99.90
9385;DHT22;4732;49.340;10.886;2023-02-28T06:55:19;-2.50;99.90
9385;DHT22;4732;49.340;10.886;2023-02-28T06:57:44;-2.40;99.90
9385;DHT22;4732;49.340;10.886;2023-02-28T07:00:11;-2.40;99.90
9385;DHT22;4732;49.340;10.886;2023-02-28T07:02:37;-2.30;99.90
9385;DHT22;4732;49.340;10.886;2023-02-28T07:05:04;-2.20;99.90
9385;DHT22;4732;49.340;10.886;2023-02-28T07:07:29;-2.10;99.90
9385;DHT22;4732;49.340;10.886;2023-02-28T07:09:55;-2.10;99.90
9385;DHT22;4732;49.340;10.886;2023-02-28T07:12:21;-2.10;99.90
9385;DHT22;4732;49.340;10.886;2023-02-28T07:14:47;-2.00;99.90
9385;DHT22;4732;49.340;10.886;2023-02-28T07:17:13;-1.90;99.90
9385;DHT22;4732;49.340;10.886;2023-02-28T07:19:39;-1.80;99.90
9385;DHT22;4732;49.340;10.886;2023-02-28T07:22:05;-1.70;99.90
9385;DHT22;4732;49.340;10.886;2023-02-28T07:24:30;-1.60;99.90
9385;DHT22;4732;49.340;10.886;2023-02-28T07:26:56;-1.60;99.90
9385;DHT22;4732;49.340;10.886;2023-02-28T07:29:22;-1.50;99.90
9385;DHT22;4732;49.340;10.886;2023-02-28T07:31:48;-1.40;99.90
9385;DHT22;4732;49.340;10.886;2023-02-28T07:34:15;-1.30;99.90
9385;DHT22;4732;49.340;10.886;2023-02-28T07:36:41;-1.20;99.90
9385;DHT22;4732;49.340;10.886;2023-02-28T07:39:06;-1.20;99.90
9385;DHT22;4732;49.340;10.886;2023-02-28T07:41:34;-1.10;99.90
9385;DHT22;4732;49.340;10.886;2023-02-28T07:44:23;-1.00;99.90
9385;DHT22;4732;49.340;10.886;2023-02-28T07:47:14;-0.90;99.90
9385;DHT22;4732;49.340;10.886;2023-02-28T07:49:52;-0.80;99.90
9385;DHT22;4732;49.340;10.886;2023-02-28T07:52:17;-0.70;99.90
9385;DHT22;4732;49.340;10.886;2023-02-28T07:54:46;-0.60;99.90
9385;DHT22;4732;49.340;10.886;2023-02-28T07:57:18;-0.60;99.90
9385;DHT22;4732;49.340;10.886;2023-02-28T07:59:47;-0.60;99.90
9385;DHT22;4732;49.340;10.886;2023-02-28T08:02:46;-0.60;99.90
9385;DHT22;4732;49.340;10.886;2023-02-28T08:05:32;-0.50;99.90
9385;DHT22;4732;49.340;10.886;2023-02-28T08:08:07;-0.50;99.90
9385;DHT22;4732;49.340;10.886;2023-02-28T08:10:34;-0.50;99.90
9385;DHT22;4732;49.340;10.886;2023-02-28T08:13:28;-0.40;99.90
9385;DHT22;4732;49.340;10.886;2023-02-28T08:15:56;-0.30;99.90
9385;DHT22;4732;49.340;10.886;2023-02-28T08:18:22;-0.20;99.90
9385;DHT22;4732;49.340;10.886;2023-02-28T08:20:48;-0.10;99.90
9385;DHT22;4732;49.340;10.886;2023-02-28T08:23:14;0.00;99.90
9385;DHT22;4732;49.340;10.886;2023-02-28T08:25:39;0.10;99.90
9385;DHT22;4732;49.340;10.886;2023-02-28T08:28:05;0.20;99.90
9385;DHT22;4732;49.340;10.886;2023-02-28T08:30:30;0.20;99.90
9385;DHT22;4732;49.340;10.886;2023-02-28T08:32:56;0.30;99.90
9385;DHT22;4732;49.340;10.886;2023-02-28T08:35:22;0.30;99.90
9385;DHT22;4732;49.340;10.886;2023-02-28T08:37:48;0.40;99.90
9385;DHT22;4732;49.340;10.886;2023-02-28T08:40:14;0.50;99.90
9385;DHT22;4732;49.340;10.886;2023-02-28T08:42:44;0.60;99.90
9385;DHT22;4732;49.340;10.886;2023-02-28T08:45:11;0.70;99.90
9385;DHT22;4732;49.340;10.886;2023-02-28T08:47:40;0.70;99.90
9385;DHT22;4732;49.340;10.886;2023-02-28T08:50:06;0.80;99.90
9385;DHT22;4732;49.340;10.886;2023-02-28T08:52:32;0.90;99.90
9385;DHT22;4732;49.340;10.886;2023-02-28T08:54:58;0.80;99.90
9385;DHT22;4732;49.340;10.886;2023-02-28T08:57:23;0.80;99.90
9385;DHT22;4732;49.340;10.886;2023-02-28T08:59:51;0.80;99.90
9385;DHT22;4732;49.340;10.886;2023-02-28T09:02:17;0.90;99.90
9385;DHT22;4732;49.340;10.886;2023-02-28T09:04:43;1.00;99.90
9385;DHT22;4732;49.340;10.886;2023-02-28T09:07:11;1.00;99.90
9385;DHT22;4732;49.340;10.886;2023-02-28T09:09:36;1.10;99.90
9385;DHT22;4732;49.340;10.886;2023-02-28T09:12:02;1.20;99.90
9385;DHT22;4732;49.340;10.886;2023-02-28T09:14:28;1.20;99.90
9385;DHT22;4732;49.340;10.886;2023-02-28T09:16:53;1.40;99.90
9385;DHT22;4732;49.340;10.886;2023-02-28T09:19:20;1.30;99.90
9385;DHT22;4732;49.340;10.886;2023-02-28T09:21:46;1.20;99.90
9385;DHT22;4732;49.340;10.886;2023-02-28T09:24:11;1.20;99.90
9385;DHT22;4732;49.340;10.886;2023-02-28T09:26:39;1.30;99.90
9385;DHT22;4732;49.340;10.886;2023-02-28T09:29:05;1.40;99.90
9385;DHT22;4732;49.340;10.886;2023-02-28T09:31:32;1.50;99.90
9385;DHT22;4732;49.340;10.886;2023-02-28T09:33:58;1.60;99.90
9385;DHT22;4732;49.340;10.886;2023-02-28T09:36:25;1.60;99.90
9385;DHT22;4732;49.340;10.886;2023-02-28T09:38:51;1.60;99.90
9385;DHT22;4732;49.340;10.886;2023-02-28T09:41:26;1.60;99.90
9385;DHT22;4732;49.340;10.886;2023-02-28T09:43:59;1.60;99.90
9385;DHT22;4732;49.340;10.886;2023-02-28T09:46:40;1.50;99.90
9385;DHT22;4732;49.340;10.886;2023-02-28T09:49:19;1.50;99.90
9385;DHT22;4732;49.340;10.886;2023-02-28T09:52:01;1.60;99.90
9385;DHT22;4732;49.340;10.886;2023-02-28T09:54:32;1.70;99.90
9385;DHT22;4732;49.340;10.886;2023-02-28T09:57:04;1.80;99.90
9385;DHT22;4732;49.340;10.886;2023-02-28T10:05:08;2.20;99.90
9385;DHT22;4732;49.340;10.886;2023-02-28T10:10:23;2.30;99.90
9385;DHT22;4732;49.340;10.886;2023-02-28T10:12:52;2.30;99.90
9385;DHT22;4732;49.340;10.886;2023-02-28T10:15:21;2.30;99.90
9385;DHT22;4732;49.340;10.886;2023-02-28T10:17:53;2.30;99.90
9385;DHT22;4732;49.340;10.886;2023-02-28T10:20:21;2.30;99.90
9385;DHT22;4732;49.340;10.886;2023-02-28T10:22:58;2.40;99.90
9385;DHT22;4732;49.340;10.886;2023-02-28T10:25:28;2.40;99.90
9385;DHT22;4732;49.340;10.886;2023-02-28T10:28:13;2.50;99.90
9385;DHT22;4732;49.340;10.886;2023-02-28T10:30:42;2.50;99.90
9385;DHT22;4732;49.340;10.886;2023-02-28T10:33:18;2.70;99.90
9385;DHT22;4732;49.340;10.886;2023-02-28T10:35:45;2.80;99.90
9385;DHT22;4732;49.340;10.886;2023-02-28T10:38:25;2.80;99.90
9385;DHT22;4732;49.340;10.886;2023-02-28T10:40:51;2.90;99.90
9385;DHT22;4732;49.340;10.886;2023-02-28T10:43:28;3.00;99.90
9385;DHT22;4732;49.340;10.886;2023-02-28T10:48:29;3.10;99.90
9385;DHT22;4732;49.340;10.886;2023-02-28T10:50:56;3.30;99.90
9385;DHT22;4732;49.340;10.886;2023-02-28T10:55:58;3.40;99.90
9385;DHT22;4732;49.340;10.886;2023-02-28T10:58:27;3.50;99.90
9385;DHT22;4732;49.340;10.886;2023-02-28T11:00:54;3.30;99.90
9385;DHT22;4732;49.340;10.886;2023-02-28T11:03:28;3.40;99.90
9385;DHT22;4732;49.340;10.886;2023-02-28T11:05:54;3.50;99.90
9385;DHT22;4732;49.340;10.886;2023-02-28T11:08:20;3.40;99.90
9385;DHT22;4732;49.340;10.886;2023-02-28T11:10:56;3.40;99.90
9385;DHT22;4732;49.340;10.886;2023-02-28T11:13:34;3.50;99.90
9385;DHT22;4732;49.340;10.886;2023-02-28T11:16:03;3.50;99.90
9385;DHT22;4732;49.340;10.886;2023-02-28T11:21:15;3.70;99.90
9385;DHT22;4732;49.340;10.886;2023-02-28T11:23:43;3.70;99.90
9385;DHT22;4732;49.340;10.886;2023-02-28T11:26:09;3.60;99.90
9385;DHT22;4732;49.340;10.886;2023-02-28T11:28:40;3.60;99.90
9385;DHT22;4732;49.340;10.886;2023-02-28T11:33:40;3.90;99.90
9385;DHT22;4732;49.340;10.886;2023-02-28T11:36:16;3.90;99.90
9385;DHT22;4732;49.340;10.886;2023-02-28T11:38:56;4.00;99.90
9385;DHT22;4732;49.340;10.886;2023-02-28T11:44:34;4.20;99.90
9385;DHT22;4732;49.340;10.886;2023-02-28T11:47:15;4.20;99.90
9385;DHT22;4732;49.340;10.886;2023-02-28T11:50:04;4.20;99.90
9385;DHT22;4732;49.340;10.886;2023-02-28T11:52:52;4.30;99.90
9385;DHT22;4732;49.340;10.886;2023-02-28T11:55:35;4.30;99.90
9385;DHT22;4732;49.340;10.886;2023-02-28T12:04:22;4.60;99.90
9385;DHT22;4732;49.340;10.886;2023-02-28T12:07:08;4.70;99.90
9385;DHT22;4732;49.340;10.886;2023-02-28T12:18:27;5.30;99.90
9385;DHT22;4732;49.340;10.886;2023-02-28T12:23:52;5.50;99.90
9385;DHT22;4732;49.340;10.886;2023-02-28T12:26:36;5.50;99.90
9385;DHT22;4732;49.340;10.886;2023-02-28T12:31:46;5.40;99.90
9385;DHT22;4732;49.340;10.886;2023-02-28T12:34:19;5.50;99.90
9385;DHT22;4732;49.340;10.886;2023-02-28T12:36:47;5.60;99.90
9385;DHT22;4732;49.340;10.886;2023-02-28T12:39:23;5.60;99.90
9385;DHT22;4732;49.340;10.886;2023-02-28T12:41:59;5.60;99.90
9385;DHT22;4732;49.340;10.886;2023-02-28T12:44:39;5.70;99.90
9385;DHT22;4732;49.340;10.886;2023-02-28T12:47:15;5.80;99.90
9385;DHT22;4732;49.340;10.886;2023-02-28T12:49:43;5.60;99.90
9385;DHT22;4732;49.340;10.886;2023-02-28T12:52:13;5.60;99.90
9385;DHT22;4732;49.340;10.886;2023-02-28T12:54:51;5.80;99.90
9385;DHT22;4732;49.340;10.886;2023-02-28T12:57:45;6.00;99.90
9385;DHT22;4732;49.340;10.886;2023-02-28T13:00:19;6.20;99.90
9385;DHT22;4732;49.340;10.886;2023-02-28T13:02:53;6.40;99.90
9385;DHT22;4732;49.340;10.886;2023-02-28T13:05:32;6.50;99.90
9385;DHT22;4732;49.340;10.886;2023-02-28T13:10:50;6.70;99.90
9385;DHT22;4732;49.340;10.886;2023-02-28T13:13:24;6.80;99.90
9385;DHT22;4732;49.340;10.886;2023-02-28T13:18:46;6.80;99.90
9385;DHT22;4732;49.340;10.886;2023-02-28T13:21:27;6.60;99.90
9385;DHT22;4732;49.340;10.886;2023-02-28T13:26:32;6.70;99.90
9385;DHT22;4732;49.340;10.886;2023-02-28T13:34:33;6.70;99.90
9385;DHT22;4732;49.340;10.886;2023-02-28T13:39:53;6.10;99.90
9385;DHT22;4732;49.340;10.886;2023-02-28T13:49:54;6.10;99.90
9385;DHT22;4732;49.340;10.886;2023-02-28T13:52:47;6.00;99.90
9385;DHT22;4732;49.340;10.886;2023-02-28T13:55:25;5.80;99.90
9385;DHT22;4732;49.340;10.886;2023-02-28T14:03:41;5.60;99.90
9385;DHT22;4732;49.340;10.886;2023-02-28T14:06:31;5.70;99.90
9385;DHT22;4732;49.340;10.886;2023-02-28T14:09:05;5.80;99.90
9385;DHT22;4732;49.340;10.886;2023-02-28T14:11:42;5.90;99.90
9385;DHT22;4732;49.340;10.886;2023-02-28T14:14:09;6.00;99.90
9385;DHT22;4732;49.340;10.886;2023-02-28T14:16:55;6.00;99.90
9385;DHT22;4732;49.340;10.886;2023-02-28T14:19:26;5.90;99.90
9385;DHT22;4732;49.340;10.886;2023-02-28T14:32:59;6.00;99.90
9385;DHT22;4732;49.340;10.886;2023-02-28T14:38:39;6.00;99.90
9385;DHT22;4732;49.340;10.886;2023-02-28T14:41:14;5.90;99.90
9385;DHT22;4732;49.340;10.886;2023-02-28T14:43:52;5.60;99.90
9385;DHT22;4732;49.340;10.886;2023-02-28T14:46:18;5.40;99.90
9385;DHT22;4732;49.340;10.886;2023-02-28T14:48:46;5.20;99.90
9385;DHT22;4732;49.340;10.886;2023-02-28T14:51:19;5.10;99.90
9385;DHT22;4732;49.340;10.886;2023-02-28T14:53:50;5.00;99.90
9385;DHT22;4732;49.340;10.886;2023-02-28T14:56:22;5.00;99.90
9385;DHT22;4732;49.340;10.886;2023-02-28T14:58:53;4.90;99.90
9385;DHT22;4732;49.340;10.886;2023-02-28T15:01:21;4.80;99.90
9385;DHT22;4732;49.340;10.886;2023-02-28T15:03:48;4.80;99.90
9385;DHT22;4732;49.340;10.886;2023-02-28T15:06:22;4.70;99.90
9385;DHT22;4732;49.340;10.886;2023-02-28T15:09:01;4.70;99.90
9385;DHT22;4732;49.340;10.886;2023-02-28T15:11:32;4.70;99.90
9385;DHT22;4732;49.340;10.886;2023-02-28T15:13:57;4.60;99.90
9385;DHT22;4732;49.340;10.886;2023-02-28T15:16:31;4.60;99.90
9385;DHT22;4732;49.340;10.886;2023-02-28T15:21:44;4.50;99.90
9385;DHT22;4732;49.340;10.886;2023-02-28T15:26:58;4.50;99.90
9385;DHT22;4732;49.340;10.886;2023-02-28T15:29:27;4.40;99.90
9385;DHT22;4732;49.340;10.886;2023-02-28T15:32:05;4.30;99.90
9385;DHT22;4732;49.340;10.886;2023-02-28T15:34:39;4.30;99.90
9385;DHT22;4732;49.340;10.886;2023-02-28T15:39:50;4.20;99.90
9385;DHT22;4732;49.340;10.886;2023-02-28T15:42:20;4.30;99.90
9385;DHT22;4732;49.340;10.886;2023-02-28T15:44:46;4.20;99.90
9385;DHT22;4732;49.340;10.886;2023-02-28T15:47:24;4.20;99.90
9385;DHT22;4732;49.340;10.886;2023-02-28T15:49:56;4.20;99.90
9385;DHT22;4732;49.340;10.886;2023-02-28T15:52:42;4.20;99.90
9385;DHT22;4732;49.340;10.886;2023-02-28T15:55:28;4.20;99.90
9385;DHT22;4732;49.340;10.886;2023-02-28T15:57:57;4.00;99.90
9385;DHT22;4732;49.340;10.886;2023-02-28T16:00:26;4.00;99.90
9385;DHT22;4732;49.340;10.886;2023-02-28T16:02:52;4.00;99.90
9385;DHT22;4732;49.340;10.886;2023-02-28T16:05:29;4.10;99.90
9385;DHT22;4732;49.340;10.886;2023-02-28T16:08:06;4.10;99.90
9385;DHT22;4732;49.340;10.886;2023-02-28T16:10:36;3.90;99.90
9385;DHT22;4732;49.340;10.886;2023-02-28T16:13:02;3.90;99.90
9385;DHT22;4732;49.340;10.886;2023-02-28T16:15:29;3.80;99.90
9385;DHT22;4732;49.340;10.886;2023-02-28T16:17:57;3.90;99.90
9385;DHT22;4732;49.340;10.886;2023-02-28T16:20:25;3.80;99.90
9385;DHT22;4732;49.340;10.886;2023-02-28T16:22:51;3.80;99.90
9385;DHT22;4732;49.340;10.886;2023-02-28T16:25:20;3.80;99.90
9385;DHT22;4732;49.340;10.886;2023-02-28T16:27:50;3.70;99.90
9385;DHT22;4732;49.340;10.886;2023-02-28T16:30:22;3.70;99.90
9385;DHT22;4732;49.340;10.886;2023-02-28T16:32:49;3.60;99.90
9385;DHT22;4732;49.340;10.886;2023-02-28T16:35:15;3.60;99.90
9385;DHT22;4732;49.340;10.886;2023-02-28T16:37:41;3.50;99.90
9385;DHT22;4732;49.340;10.886;2023-02-28T16:40:19;3.50;99.90
9385;DHT22;4732;49.340;10.886;2023-02-28T16:42:47;3.30;99.90
9385;DHT22;4732;49.340;10.886;2023-02-28T16:45:17;3.10;99.90
9385;DHT22;4732;49.340;10.886;2023-02-28T16:47:44;3.00;99.90
9385;DHT22;4732;49.340;10.886;2023-02-28T16:50:27;2.90;99.90
9385;DHT22;4732;49.340;10.886;2023-02-28T16:52:54;2.90;99.90
9385;DHT22;4732;49.340;10.886;2023-02-28T16:55:20;2.70;99.90
9385;DHT22;4732;49.340;10.886;2023-02-28T16:57:58;2.70;99.90
9385;DHT22;4732;49.340;10.886;2023-02-28T17:00:25;2.60;99.90
9385;DHT22;4732;49.340;10.886;2023-02-28T17:02:51;2.50;99.90
9385;DHT22;4732;49.340;10.886;2023-02-28T17:05:17;2.40;99.90
9385;DHT22;4732;49.340;10.886;2023-02-28T17:07:44;2.40;99.90
9385;DHT22;4732;49.340;10.886;2023-02-28T17:10:22;2.30;99.90
9385;DHT22;4732;49.340;10.886;2023-02-28T17:12:48;2.20;99.90
9385;DHT22;4732;49.340;10.886;2023-02-28T17:15:16;2.10;99.90
9385;DHT22;4732;49.340;10.886;2023-02-28T17:17:42;2.10;99.90
9385;DHT22;4732;49.340;10.886;2023-02-28T17:20:13;2.10;99.90
9385;DHT22;4732;49.340;10.886;2023-02-28T17:22:39;2.00;99.90
9385;DHT22;4732;49.340;10.886;2023-02-28T17:25:05;1.90;99.90
9385;DHT22;4732;49.340;10.886;2023-02-28T17:27:31;1.90;99.90
9385;DHT22;4732;49.340;10.886;2023-02-28T17:29:57;1.90;99.90
9385;DHT22;4732;49.340;10.886;2023-02-28T17:32:22;1.80;99.90
9385;DHT22;4732;49.340;10.886;2023-02-28T17:34:49;1.80;99.90
9385;DHT22;4732;49.340;10.886;2023-02-28T17:37:14;1.70;99.90
9385;DHT22;4732;49.340;10.886;2023-02-28T17:39:40;1.70;99.90
9385;DHT22;4732;49.340;10.886;2023-02-28T17:42:06;1.60;99.90
9385;DHT22;4732;49.340;10.886;2023-02-28T17:44:32;1.40;99.90
9385;DHT22;4732;49.340;10.886;2023-02-28T17:46:59;1.30;99.90
9385;DHT22;4732;49.340;10.886;2023-02-28T17:49:25;1.30;99.90
9385;DHT22;4732;49.340;10.886;2023-02-28T17:51:51;1.20;99.90
9385;DHT22;4732;49.340;10.886;2023-02-28T17:54:16;1.20;99.90
9385;DHT22;4732;49.340;10.886;2023-02-28T17:56:42;1.10;99.90
9385;DHT22;4732;49.340;10.886;2023-02-28T17:59:12;1.00;99.90
9385;DHT22;4732;49.340;10.886;2023-02-28T18:01:38;1.00;99.90
9385;DHT22;4732;49.340;10.886;2023-02-28T18:04:10;0.90;99.90
9385;DHT22;4732;49.340;10.886;2023-02-28T18:06:48;0.90;99.90
9385;DHT22;4732;49.340;10.886;2023-02-28T18:09:17;0.80;99.90
9385;DHT22;4732;49.340;10.886;2023-02-28T18:11:44;0.80;99.90
9385;DHT22;4732;49.340;10.886;2023-02-28T18:14:16;0.70;99.90
9385;DHT22;4732;49.340;10.886;2023-02-28T18:16:43;0.60;99.90
9385;DHT22;4732;49.340;10.886;2023-02-28T18:19:10;0.50;99.90
9385;DHT22;4732;49.340;10.886;2023-02-28T18:21:47;0.50;99.90
9385;DHT22;4732;49.340;10.886;2023-02-28T18:24:13;0.40;99.90
9385;DHT22;4732;49.340;10.886;2023-02-28T18:26:41;0.40;99.90
9385;DHT22;4732;49.340;10.886;2023-02-28T18:29:07;0.30;99.90
9385;DHT22;4732;49.340;10.886;2023-02-28T18:31:34;0.20;99.90
9385;DHT22;4732;49.340;10.886;2023-02-28T18:34:00;0.20;99.90
9385;DHT22;4732;49.340;10.886;2023-02-28T18:36:27;0.10;99.90
9385;DHT22;4732;49.340;10.886;2023-02-28T18:38:53;0.10;99.90
9385;DHT22;4732;49.340;10.886;2023-02-28T18:41:19;0.00;99.90
9385;DHT22;4732;49.340;10.886;2023-02-28T18:43:46;0.00;99.90
9385;DHT22;4732;49.340;10.886;2023-02-28T18:46:14;-0.10;99.90
9385;DHT22;4732;49.340;10.886;2023-02-28T18:48:40;-0.20;99.90
9385;DHT22;4732;49.340;10.886;2023-02-28T18:51:11;-0.20;99.90
9385;DHT22;4732;49.340;10.886;2023-02-28T18:53:38;-0.30;99.90
9385;DHT22;4732;49.340;10.886;2023-02-28T18:56:05;-0.30;99.90
9385;DHT22;4732;49.340;10.886;2023-02-28T18:58:32;-0.40;99.90
9385;DHT22;4732;49.340;10.886;2023-02-28T19:01:02;-0.50;99.90
9385;DHT22;4732;49.340;10.886;2023-02-28T19:03:27;-0.50;99.90
9385;DHT22;4732;49.340;10.886;2023-02-28T19:05:57;-0.50;99.90
9385;DHT22;4732;49.340;10.886;2023-02-28T19:08:24;-0.50;99.90
9385;DHT22;4732;49.340;10.886;2023-02-28T19:10:50;-0.60;99.90
9385;DHT22;4732;49.340;10.886;2023-02-28T19:13:16;-0.60;99.90
9385;DHT22;4732;49.340;10.886;2023-02-28T19:15:43;-0.70;99.90
9385;DHT22;4732;49.340;10.886;2023-02-28T19:18:08;-0.70;99.90
9385;DHT22;4732;49.340;10.886;2023-02-28T19:20:35;-0.70;99.90
9385;DHT22;4732;49.340;10.886;2023-02-28T19:23:01;-0.80;99.90
9385;DHT22;4732;49.340;10.886;2023-02-28T19:25:28;-0.70;99.90
9385;DHT22;4732;49.340;10.886;2023-02-28T19:27:54;-0.80;99.90
9385;DHT22;4732;49.340;10.886;2023-02-28T19:30:25;-0.80;99.90
9385;DHT22;4732;49.340;10.886;2023-02-28T19:32:50;-0.80;99.90
9385;DHT22;4732;49.340;10.886;2023-02-28T19:35:16;-0.80;99.90
9385;DHT22;4732;49.340;10.886;2023-02-28T19:37:42;-0.80;99.90
9385;DHT22;4732;49.340;10.886;2023-02-28T19:40:09;-0.90;99.90
9385;DHT22;4732;49.340;10.886;2023-02-28T19:42:35;-0.90;99.90
9385;DHT22;4732;49.340;10.886;2023-02-28T19:45:02;-1.00;99.90
9385;DHT22;4732;49.340;10.886;2023-02-28T19:47:29;-1.00;99.90
9385;DHT22;4732;49.340;10.886;2023-02-28T19:49:55;-1.00;99.90
9385;DHT22;4732;49.340;10.886;2023-02-28T19:52:22;-1.00;99.90
9385;DHT22;4732;49.340;10.886;2023-02-28T19:54:50;-1.10;99.90
9385;DHT22;4732;49.340;10.886;2023-02-28T19:57:16;-1.10;99.90
9385;DHT22;4732;49.340;10.886;2023-02-28T19:59:43;-1.30;99.90
9385;DHT22;4732;49.340;10.886;2023-02-28T20:02:18;-1.40;99.90
9385;DHT22;4732;49.340;10.886;2023-02-28T20:04:47;-1.40;99.90
9385;DHT22;4732;49.340;10.886;2023-02-28T20:07:16;-1.40;99.90
9385;DHT22;4732;49.340;10.886;2023-02-28T20:09:47;-1.30;99.90
9385;DHT22;4732;49.340;10.886;2023-02-28T20:12:16;-1.30;99.90
9385;DHT22;4732;49.340;10.886;2023-02-28T20:14:42;-1.30;99.90
9385;DHT22;4732;49.340;10.886;2023-02-28T20:17:08;-1.40;99.90
9385;DHT22;4732;49.340;10.886;2023-02-28T20:19:34;-1.40;99.90
9385;DHT22;4732;49.340;10.886;2023-02-28T20:22:00;-1.40;99.90
9385;DHT22;4732;49.340;10.886;2023-02-28T20:24:28;-1.50;99.90
9385;DHT22;4732;49.340;10.886;2023-02-28T20:26:55;-1.50;99.90
9385;DHT22;4732;49.340;10.886;2023-02-28T20:29:22;-1.50;99.90
9385;DHT22;4732;49.340;10.886;2023-02-28T20:31:49;-1.50;99.90
9385;DHT22;4732;49.340;10.886;2023-02-28T20:34:15;-1.50;99.90
9385;DHT22;4732;49.340;10.886;2023-02-28T20:36:43;-1.50;99.90
9385;DHT22;4732;49.340;10.886;2023-02-28T20:39:09;-1.60;99.90
9385;DHT22;4732;49.340;10.886;2023-02-28T20:41:35;-1.60;99.90
9385;DHT22;4732;49.340;10.886;2023-02-28T20:44:01;-1.60;99.90
9385;DHT22;4732;49.340;10.886;2023-02-28T20:46:29;-1.50;99.90
9385;DHT22;4732;49.340;10.886;2023-02-28T20:48:56;-1.60;99.90
9385;DHT22;4732;49.340;10.886;2023-02-28T20:51:22;-1.60;99.90
9385;DHT22;4732;49.340;10.886;2023-02-28T20:53:49;-1.60;99.90
9385;DHT22;4732;49.340;10.886;2023-02-28T20:56:17;-1.60;99.90
9385;DHT22;4732;49.340;10.886;2023-02-28T20:58:45;-1.70;99.90
9385;DHT22;4732;49.340;10.886;2023-02-28T21:01:14;-1.80;99.90
9385;DHT22;4732;49.340;10.886;2023-02-28T21:03:45;-1.90;99.90
9385;DHT22;4732;49.340;10.886;2023-02-28T21:06:12;-1.90;99.90
9385;DHT22;4732;49.340;10.886;2023-02-28T21:08:38;-1.90;99.90
9385;DHT22;4732;49.340;10.886;2023-02-28T21:11:19;-1.90;99.90
9385;DHT22;4732;49.340;10.886;2023-02-28T21:13:45;-1.90;99.90
9385;DHT22;4732;49.340;10.886;2023-02-28T21:16:14;-1.90;99.90
9385;DHT22;4732;49.340;10.886;2023-02-28T21:18:41;-1.90;99.90
9385;DHT22;4732;49.340;10.886;2023-02-28T21:21:20;-2.00;99.90
9385;DHT22;4732;49.340;10.886;2023-02-28T21:23:46;-2.00;99.90
9385;DHT22;4732;49.340;10.886;2023-02-28T21:26:20;-2.00;99.90
9385;DHT22;4732;49.340;10.886;2023-02-28T21:28:50;-2.10;99.90
9385;DHT22;4732;49.340;10.886;2023-02-28T21:31:17;-2.00;99.90
9385;DHT22;4732;49.340;10.886;2023-02-28T21:33:44;-2.10;99.90
9385;DHT22;4732;49.340;10.886;2023-02-28T21:38:38;-2.10;99.90
9385;DHT22;4732;49.340;10.886;2023-02-28T21:41:13;-2.10;99.90
9385;DHT22;4732;49.340;10.886;2023-02-28T21:43:39;-2.20;99.90
9385;DHT22;4732;49.340;10.886;2023-02-28T21:46:08;-2.20;99.90
9385;DHT22;4732;49.340;10.886;2023-02-28T21:48:35;-2.10;99.90